sensor_id;sensor_type;location;lat;lon;timestamp;P1;durP1;ratioP1;P2;durP2;ratioP2
27985;SDS011;15453;53.692;10.168;2022-12-19T00:01:34;28.27;;;15.02;;
27985;SDS011;15453;53.692;10.168;2022-12-19T00:04:03;29.42;;;14.93;;
27985;SDS011;15453;53.692;10.168;2022-12-19T00:06:30;30.58;;;15.55;;
27985;SDS011;15453;53.692;10.168;2022-12-19T00:08:56;30.10;;;15.05;;
27985;SDS011;15453;53.692;10.168;2022-12-19T00:11:24;29.15;;;14.88;;
27985;SDS011;15453;53.692;10.168;2022-12-19T00:13:51;29.13;;;14.63;;
27985;SDS011;15453;53.692;10.168;2022-12-19T00:16:17;31.65;;;16.35;;
27985;SDS011;15453;53.692;10.168;2022-12-19T00:18:44;30.30;;;15.05;;
27985;SDS011;15453;53.692;10.168;2022-12-19T00:21:11;31.83;;;15.88;;
27985;SDS011;15453;53.692;10.168;2022-12-19T00:23:40;31.70;;;15.05;;
27985;SDS011;15453;53.692;10.168;2022-12-19T00:26:07;30.23;;;15.50;;
27985;SDS011;15453;53.692;10.168;2022-12-19T00:28:33;32.15;;;15.40;;
27985;SDS011;15453;53.692;10.168;2022-12-19T00:31:00;32.13;;;15.20;;
27985;SDS011;15453;53.692;10.168;2022-12-19T00:33:26;32.03;;;17.52;;
27985;SDS011;15453;53.692;10.168;2022-12-19T00:35:55;29.60;;;15.15;;
27985;SDS011;15453;53.692;10.168;2022-12-19T00:38:24;31.10;;;15.30;;
27985;SDS011;15453;53.692;10.168;2022-12-19T00:40:50;29.55;;;14.57;;
27985;SDS011;15453;53.692;10.168;2022-12-19T00:43:15;32.15;;;14.02;;
27985;SDS011;15453;53.692;10.168;2022-12-19T00:45:40;28.35;;;13.88;;
27985;SDS011;15453;53.692;10.168;2022-12-19T00:48:05;27.45;;;14.32;;
27985;SDS011;15453;53.692;10.168;2022-12-19T00:50:31;27.88;;;15.52;;
27985;SDS011;15453;53.692;10.168;2022-12-19T00:52:56;32.58;;;15.23;;
27985;SDS011;15453;53.692;10.168;2022-12-19T00:55:21;27.27;;;14.82;;
27985;SDS011;15453;53.692;10.168;2022-12-19T00:57:46;30.75;;;15.48;;
27985;SDS011;15453;53.692;10.168;2022-12-19T01:00:12;27.42;;;14.43;;
27985;SDS011;15453;53.692;10.168;2022-12-19T01:02:38;29.33;;;14.68;;
27985;SDS011;15453;53.692;10.168;2022-12-19T01:05:03;31.80;;;15.68;;
27985;SDS011;15453;53.692;10.168;2022-12-19T01:07:29;28.10;;;14.98;;
27985;SDS011;15453;53.692;10.168;2022-12-19T01:09:54;31.05;;;14.82;;
27985;SDS011;15453;53.692;10.168;2022-12-19T01:12:19;26.77;;;13.95;;
27985;SDS011;15453;53.692;10.168;2022-12-19T01:15:03;30.98;;;15.15;;
27985;SDS011;15453;53.692;10.168;2022-12-19T01:17:28;29.08;;;14.77;;
27985;SDS011;15453;53.692;10.168;2022-12-19T01:19:54;26.90;;;13.80;;
27985;SDS011;15453;53.692;10.168;2022-12-19T01:22:19;26.50;;;13.95;;
27985;SDS011;15453;53.692;10.168;2022-12-19T01:24:44;32.30;;;15.98;;
27985;SDS011;15453;53.692;10.168;2022-12-19T01:27:09;27.27;;;13.50;;
27985;SDS011;15453;53.692;10.168;2022-12-19T01:29:35;29.65;;;14.77;;
27985;SDS011;15453;53.692;10.168;2022-12-19T01:32:00;29.25;;;14.40;;
27985;SDS011;15453;53.692;10.168;2022-12-19T01:34:26;29.35;;;14.27;;
27985;SDS011;15453;53.692;10.168;2022-12-19T01:36:51;31.27;;;15.10;;
27985;SDS011;15453;53.692;10.168;2022-12-19T01:39:17;26.48;;;13.70;;
27985;SDS011;15453;53.692;10.168;2022-12-19T01:41:42;30.65;;;14.55;;
27985;SDS011;15453;53.692;10.168;2022-12-19T01:44:07;30.63;;;15.35;;
27985;SDS011;15453;53.692;10.168;2022-12-19T01:46:34;32.78;;;14.98;;
27985;SDS011;15453;53.692;10.168;2022-12-19T01:49:00;30.67;;;14.93;;
27985;SDS011;15453;53.692;10.168;2022-12-19T01:51:29;28.05;;;13.40;;
27985;SDS011;15453;53.692;10.168;2022-12-19T01:54:00;27.63;;;13.68;;
27985;SDS011;15453;53.692;10.168;2022-12-19T01:56:31;27.95;;;13.82;;
27985;SDS011;15453;53.692;10.168;2022-12-19T01:58:59;29.75;;;14.18;;
27985;SDS011;15453;53.692;10.168;2022-12-19T02:01:26;27.73;;;14.65;;
27985;SDS011;15453;53.692;10.168;2022-12-19T02:03:52;27.15;;;14.77;;
27985;SDS011;15453;53.692;10.168;2022-12-19T02:06:18;30.55;;;13.85;;
27985;SDS011;15453;53.692;10.168;2022-12-19T02:08:45;30.33;;;14.90;;
27985;SDS011;15453;53.692;10.168;2022-12-19T02:11:12;26.33;;;14.25;;
27985;SDS011;15453;53.692;10.168;2022-12-19T02:13:37;26.15;;;13.65;;
27985;SDS011;15453;53.692;10.168;2022-12-19T02:16:15;28.58;;;13.98;;
27985;SDS011;15453;53.692;10.168;2022-12-19T02:19:02;28.77;;;14.07;;
27985;SDS011;15453;53.692;10.168;2022-12-19T02:27:11;28.35;;;13.75;;
27985;SDS011;15453;53.692;10.168;2022-12-19T02:29:58;27.00;;;13.52;;
27985;SDS011;15453;53.692;10.168;2022-12-19T02:32:31;30.13;;;13.90;;
27985;SDS011;15453;53.692;10.168;2022-12-19T02:37:42;26.90;;;14.25;;
27985;SDS011;15453;53.692;10.168;2022-12-19T02:40:15;26.65;;;13.35;;
27985;SDS011;15453;53.692;10.168;2022-12-19T02:42:46;27.20;;;13.45;;
27985;SDS011;15453;53.692;10.168;2022-12-19T02:45:16;27.67;;;13.73;;
27985;SDS011;15453;53.692;10.168;2022-12-19T02:47:43;26.35;;;14.05;;
27985;SDS011;15453;53.692;10.168;2022-12-19T02:50:09;29.33;;;14.40;;
27985;SDS011;15453;53.692;10.168;2022-12-19T02:55:02;25.77;;;13.40;;
27985;SDS011;15453;53.692;10.168;2022-12-19T02:57:31;24.17;;;12.30;;
27985;SDS011;15453;53.692;10.168;2022-12-19T03:00:03;26.33;;;12.32;;
27985;SDS011;15453;53.692;10.168;2022-12-19T03:05:21;27.45;;;13.98;;
27985;SDS011;15453;53.692;10.168;2022-12-19T03:07:54;28.38;;;14.45;;
27985;SDS011;15453;53.692;10.168;2022-12-19T03:10:38;24.80;;;13.05;;
27985;SDS011;15453;53.692;10.168;2022-12-19T03:13:08;26.25;;;13.77;;
27985;SDS011;15453;53.692;10.168;2022-12-19T03:18:03;24.85;;;12.20;;
27985;SDS011;15453;53.692;10.168;2022-12-19T03:20:32;24.83;;;12.20;;
27985;SDS011;15453;53.692;10.168;2022-12-19T03:23:06;27.17;;;14.05;;
27985;SDS011;15453;53.692;10.168;2022-12-19T03:25:32;25.15;;;14.00;;
27985;SDS011;15453;53.692;10.168;2022-12-19T03:27:59;26.52;;;14.07;;
27985;SDS011;15453;53.692;10.168;2022-12-19T03:30:29;24.85;;;13.43;;
27985;SDS011;15453;53.692;10.168;2022-12-19T03:32:57;23.58;;;13.10;;
27985;SDS011;15453;53.692;10.168;2022-12-19T03:35:25;28.00;;;14.55;;
27985;SDS011;15453;53.692;10.168;2022-12-19T03:37:54;25.10;;;13.57;;
27985;SDS011;15453;53.692;10.168;2022-12-19T03:40:21;23.58;;;13.00;;
27985;SDS011;15453;53.692;10.168;2022-12-19T03:42:50;26.10;;;13.63;;
27985;SDS011;15453;53.692;10.168;2022-12-19T03:45:41;26.23;;;12.93;;
27985;SDS011;15453;53.692;10.168;2022-12-19T03:48:12;27.13;;;13.80;;
27985;SDS011;15453;53.692;10.168;2022-12-19T03:53:57;27.63;;;14.02;;
27985;SDS011;15453;53.692;10.168;2022-12-19T03:59:06;29.05;;;14.38;;
27985;SDS011;15453;53.692;10.168;2022-12-19T04:01:49;26.15;;;13.55;;
27985;SDS011;15453;53.692;10.168;2022-12-19T04:04:17;27.25;;;14.25;;
27985;SDS011;15453;53.692;10.168;2022-12-19T04:06:44;24.45;;;13.48;;
27985;SDS011;15453;53.692;10.168;2022-12-19T04:09:09;26.83;;;13.68;;
27985;SDS011;15453;53.692;10.168;2022-12-19T04:11:37;24.83;;;13.43;;
27985;SDS011;15453;53.692;10.168;2022-12-19T04:14:09;30.30;;;14.55;;
27985;SDS011;15453;53.692;10.168;2022-12-19T04:19:34;25.50;;;13.52;;
27985;SDS011;15453;53.692;10.168;2022-12-19T04:22:21;24.13;;;12.98;;
27985;SDS011;15453;53.692;10.168;2022-12-19T04:24:51;26.38;;;14.25;;
27985;SDS011;15453;53.692;10.168;2022-12-19T04:27:18;24.52;;;13.48;;
27985;SDS011;15453;53.692;10.168;2022-12-19T04:29:45;22.27;;;12.70;;
27985;SDS011;15453;53.692;10.168;2022-12-19T04:32:11;24.35;;;12.25;;
27985;SDS011;15453;53.692;10.168;2022-12-19T04:34:37;23.77;;;13.38;;
27985;SDS011;15453;53.692;10.168;2022-12-19T04:37:02;23.00;;;12.65;;
27985;SDS011;15453;53.692;10.168;2022-12-19T04:39:28;25.08;;;13.32;;
27985;SDS011;15453;53.692;10.168;2022-12-19T04:41:54;28.50;;;13.70;;
27985;SDS011;15453;53.692;10.168;2022-12-19T04:44:19;22.33;;;12.82;;
27985;SDS011;15453;53.692;10.168;2022-12-19T04:46:44;26.38;;;14.50;;
27985;SDS011;15453;53.692;10.168;2022-12-19T04:49:09;25.90;;;13.48;;
27985;SDS011;15453;53.692;10.168;2022-12-19T04:51:35;25.63;;;13.55;;
27985;SDS011;15453;53.692;10.168;2022-12-19T04:54:00;24.88;;;12.93;;
27985;SDS011;15453;53.692;10.168;2022-12-19T04:56:25;25.63;;;13.15;;
27985;SDS011;15453;53.692;10.168;2022-12-19T04:58:57;23.45;;;13.13;;
27985;SDS011;15453;53.692;10.168;2022-12-19T05:01:23;24.85;;;13.43;;
27985;SDS011;15453;53.692;10.168;2022-12-19T05:03:48;24.95;;;13.10;;
27985;SDS011;15453;53.692;10.168;2022-12-19T05:06:14;21.10;;;11.82;;
27985;SDS011;15453;53.692;10.168;2022-12-19T05:08:40;28.50;;;13.80;;
27985;SDS011;15453;53.692;10.168;2022-12-19T05:11:06;20.65;;;11.38;;
27985;SDS011;15453;53.692;10.168;2022-12-19T05:13:33;23.88;;;12.75;;
27985;SDS011;15453;53.692;10.168;2022-12-19T05:15:59;25.95;;;12.63;;
27985;SDS011;15453;53.692;10.168;2022-12-19T05:18:26;26.08;;;13.65;;
27985;SDS011;15453;53.692;10.168;2022-12-19T05:20:52;23.63;;;12.75;;
27985;SDS011;15453;53.692;10.168;2022-12-19T05:23:18;26.25;;;13.55;;
27985;SDS011;15453;53.692;10.168;2022-12-19T05:25:44;26.70;;;14.63;;
27985;SDS011;15453;53.692;10.168;2022-12-19T05:28:09;24.55;;;13.40;;
27985;SDS011;15453;53.692;10.168;2022-12-19T05:30:34;24.50;;;12.95;;
27985;SDS011;15453;53.692;10.168;2022-12-19T05:32:59;24.70;;;13.13;;
27985;SDS011;15453;53.692;10.168;2022-12-19T05:35:25;23.88;;;13.00;;
27985;SDS011;15453;53.692;10.168;2022-12-19T05:37:51;24.95;;;14.13;;
27985;SDS011;15453;53.692;10.168;2022-12-19T05:40:16;24.15;;;12.88;;
27985;SDS011;15453;53.692;10.168;2022-12-19T05:42:41;23.75;;;13.00;;
27985;SDS011;15453;53.692;10.168;2022-12-19T05:45:06;23.67;;;12.63;;
27985;SDS011;15453;53.692;10.168;2022-12-19T05:47:32;27.45;;;13.68;;
27985;SDS011;15453;53.692;10.168;2022-12-19T05:49:57;23.77;;;12.32;;
27985;SDS011;15453;53.692;10.168;2022-12-19T05:52:23;24.75;;;13.15;;
27985;SDS011;15453;53.692;10.168;2022-12-19T05:54:48;23.35;;;13.13;;
27985;SDS011;15453;53.692;10.168;2022-12-19T05:57:14;23.95;;;12.05;;
27985;SDS011;15453;53.692;10.168;2022-12-19T05:59:39;23.88;;;12.50;;
27985;SDS011;15453;53.692;10.168;2022-12-19T06:02:04;22.42;;;12.70;;
27985;SDS011;15453;53.692;10.168;2022-12-19T06:04:29;24.73;;;13.48;;
27985;SDS011;15453;53.692;10.168;2022-12-19T06:06:55;21.17;;;12.85;;
27985;SDS011;15453;53.692;10.168;2022-12-19T06:09:20;23.45;;;13.35;;
27985;SDS011;15453;53.692;10.168;2022-12-19T06:11:45;20.40;;;12.13;;
27985;SDS011;15453;53.692;10.168;2022-12-19T06:14:10;22.67;;;12.80;;
27985;SDS011;15453;53.692;10.168;2022-12-19T06:16:36;23.17;;;12.38;;
27985;SDS011;15453;53.692;10.168;2022-12-19T06:19:01;22.55;;;13.27;;
27985;SDS011;15453;53.692;10.168;2022-12-19T06:21:26;23.13;;;13.00;;
27985;SDS011;15453;53.692;10.168;2022-12-19T06:23:51;21.98;;;12.57;;
27985;SDS011;15453;53.692;10.168;2022-12-19T06:26:19;22.05;;;12.15;;
27985;SDS011;15453;53.692;10.168;2022-12-19T06:28:45;23.33;;;13.05;;
27985;SDS011;15453;53.692;10.168;2022-12-19T06:31:11;25.48;;;14.50;;
27985;SDS011;15453;53.692;10.168;2022-12-19T06:33:37;23.33;;;13.15;;
27985;SDS011;15453;53.692;10.168;2022-12-19T06:36:06;23.75;;;13.20;;
27985;SDS011;15453;53.692;10.168;2022-12-19T06:38:34;23.30;;;13.50;;
27985;SDS011;15453;53.692;10.168;2022-12-19T06:40:59;23.40;;;12.70;;
27985;SDS011;15453;53.692;10.168;2022-12-19T06:43:44;22.15;;;12.65;;
27985;SDS011;15453;53.692;10.168;2022-12-19T06:46:10;25.15;;;13.63;;
27985;SDS011;15453;53.692;10.168;2022-12-19T06:48:35;23.10;;;11.98;;
27985;SDS011;15453;53.692;10.168;2022-12-19T06:51:01;23.45;;;12.93;;
27985;SDS011;15453;53.692;10.168;2022-12-19T06:53:27;22.25;;;12.40;;
27985;SDS011;15453;53.692;10.168;2022-12-19T06:55:54;24.90;;;12.93;;
27985;SDS011;15453;53.692;10.168;2022-12-19T06:58:22;20.75;;;12.38;;
27985;SDS011;15453;53.692;10.168;2022-12-19T07:00:47;20.80;;;11.93;;
27985;SDS011;15453;53.692;10.168;2022-12-19T07:03:13;25.80;;;12.82;;
27985;SDS011;15453;53.692;10.168;2022-12-19T07:05:41;20.80;;;12.45;;
27985;SDS011;15453;53.692;10.168;2022-12-19T07:08:07;23.08;;;13.70;;
27985;SDS011;15453;53.692;10.168;2022-12-19T07:10:34;20.52;;;11.50;;
27985;SDS011;15453;53.692;10.168;2022-12-19T07:12:59;24.77;;;13.35;;
27985;SDS011;15453;53.692;10.168;2022-12-19T07:15:24;22.20;;;12.55;;
27985;SDS011;15453;53.692;10.168;2022-12-19T07:17:50;21.77;;;12.80;;
27985;SDS011;15453;53.692;10.168;2022-12-19T07:20:16;23.42;;;12.73;;
27985;SDS011;15453;53.692;10.168;2022-12-19T07:22:43;21.48;;;12.27;;
27985;SDS011;15453;53.692;10.168;2022-12-19T07:25:09;22.58;;;12.77;;
27985;SDS011;15453;53.692;10.168;2022-12-19T07:27:34;21.02;;;12.18;;
27985;SDS011;15453;53.692;10.168;2022-12-19T07:30:00;21.08;;;11.38;;
27985;SDS011;15453;53.692;10.168;2022-12-19T07:32:25;20.88;;;12.60;;
27985;SDS011;15453;53.692;10.168;2022-12-19T07:34:51;20.70;;;11.82;;
27985;SDS011;15453;53.692;10.168;2022-12-19T07:37:16;19.52;;;12.32;;
27985;SDS011;15453;53.692;10.168;2022-12-19T07:39:41;20.02;;;11.88;;
27985;SDS011;15453;53.692;10.168;2022-12-19T07:42:06;21.80;;;12.95;;
27985;SDS011;15453;53.692;10.168;2022-12-19T07:44:32;24.00;;;13.30;;
27985;SDS011;15453;53.692;10.168;2022-12-19T07:46:57;19.23;;;11.32;;
27985;SDS011;15453;53.692;10.168;2022-12-19T07:49:22;22.30;;;12.48;;
27985;SDS011;15453;53.692;10.168;2022-12-19T07:51:48;19.33;;;11.27;;
27985;SDS011;15453;53.692;10.168;2022-12-19T07:54:14;23.70;;;12.55;;
27985;SDS011;15453;53.692;10.168;2022-12-19T07:56:39;21.98;;;12.48;;
27985;SDS011;15453;53.692;10.168;2022-12-19T07:59:04;21.55;;;11.57;;
27985;SDS011;15453;53.692;10.168;2022-12-19T08:01:30;23.75;;;12.65;;
27985;SDS011;15453;53.692;10.168;2022-12-19T08:03:55;20.73;;;12.25;;
27985;SDS011;15453;53.692;10.168;2022-12-19T08:06:21;22.80;;;12.15;;
27985;SDS011;15453;53.692;10.168;2022-12-19T08:08:47;20.38;;;12.43;;
27985;SDS011;15453;53.692;10.168;2022-12-19T08:11:16;21.73;;;12.25;;
27985;SDS011;15453;53.692;10.168;2022-12-19T08:13:43;20.15;;;11.70;;
27985;SDS011;15453;53.692;10.168;2022-12-19T08:16:09;21.88;;;10.98;;
27985;SDS011;15453;53.692;10.168;2022-12-19T08:18:34;22.02;;;12.38;;
27985;SDS011;15453;53.692;10.168;2022-12-19T08:20:59;20.23;;;12.10;;
27985;SDS011;15453;53.692;10.168;2022-12-19T08:23:25;22.58;;;12.60;;
27985;SDS011;15453;53.692;10.168;2022-12-19T08:28:49;22.63;;;11.00;;
27985;SDS011;15453;53.692;10.168;2022-12-19T08:31:18;25.00;;;13.02;;
27985;SDS011;15453;53.692;10.168;2022-12-19T08:33:44;22.88;;;12.40;;
27985;SDS011;15453;53.692;10.168;2022-12-19T08:36:12;21.33;;;12.02;;
27985;SDS011;15453;53.692;10.168;2022-12-19T08:38:39;23.58;;;12.60;;
27985;SDS011;15453;53.692;10.168;2022-12-19T08:41:04;20.35;;;11.57;;
27985;SDS011;15453;53.692;10.168;2022-12-19T08:43:30;18.58;;;11.57;;
27985;SDS011;15453;53.692;10.168;2022-12-19T08:45:56;23.98;;;12.73;;
27985;SDS011;15453;53.692;10.168;2022-12-19T08:48:22;22.45;;;12.40;;
27985;SDS011;15453;53.692;10.168;2022-12-19T08:50:51;22.20;;;12.43;;
27985;SDS011;15453;53.692;10.168;2022-12-19T08:53:18;23.40;;;12.73;;
27985;SDS011;15453;53.692;10.168;2022-12-19T08:55:44;21.05;;;12.13;;
27985;SDS011;15453;53.692;10.168;2022-12-19T08:58:10;20.90;;;12.60;;
27985;SDS011;15453;53.692;10.168;2022-12-19T09:00:35;24.65;;;13.27;;
27985;SDS011;15453;53.692;10.168;2022-12-19T09:03:01;21.85;;;12.68;;
27985;SDS011;15453;53.692;10.168;2022-12-19T09:05:26;22.60;;;11.73;;
27985;SDS011;15453;53.692;10.168;2022-12-19T09:07:51;21.02;;;12.20;;
27985;SDS011;15453;53.692;10.168;2022-12-19T09:10:16;22.30;;;13.10;;
27985;SDS011;15453;53.692;10.168;2022-12-19T09:12:41;21.80;;;12.93;;
27985;SDS011;15453;53.692;10.168;2022-12-19T09:15:07;19.85;;;12.43;;
27985;SDS011;15453;53.692;10.168;2022-12-19T09:17:32;21.83;;;11.73;;
27985;SDS011;15453;53.692;10.168;2022-12-19T09:19:57;23.20;;;12.68;;
27985;SDS011;15453;53.692;10.168;2022-12-19T09:22:23;22.33;;;12.38;;
27985;SDS011;15453;53.692;10.168;2022-12-19T09:24:48;20.33;;;12.25;;
27985;SDS011;15453;53.692;10.168;2022-12-19T09:27:13;21.08;;;12.32;;
27985;SDS011;15453;53.692;10.168;2022-12-19T09:29:38;21.35;;;12.55;;
27985;SDS011;15453;53.692;10.168;2022-12-19T09:32:04;19.33;;;12.00;;
27985;SDS011;15453;53.692;10.168;2022-12-19T09:34:29;20.10;;;12.48;;
27985;SDS011;15453;53.692;10.168;2022-12-19T09:36:54;20.70;;;12.30;;
27985;SDS011;15453;53.692;10.168;2022-12-19T09:39:20;21.48;;;12.68;;
27985;SDS011;15453;53.692;10.168;2022-12-19T09:46:54;22.13;;;13.20;;
27985;SDS011;15453;53.692;10.168;2022-12-19T09:49:28;19.95;;;12.75;;
27985;SDS011;15453;53.692;10.168;2022-12-19T09:55:04;21.33;;;12.40;;
27985;SDS011;15453;53.692;10.168;2022-12-19T09:57:57;19.40;;;11.75;;
27985;SDS011;15453;53.692;10.168;2022-12-19T10:00:44;20.10;;;11.68;;
27985;SDS011;15453;53.692;10.168;2022-12-19T10:03:24;23.13;;;13.55;;
27985;SDS011;15453;53.692;10.168;2022-12-19T10:05:54;20.25;;;12.23;;
27985;SDS011;15453;53.692;10.168;2022-12-19T10:08:24;23.98;;;12.32;;
27985;SDS011;15453;53.692;10.168;2022-12-19T10:22:02;22.00;;;11.90;;
27985;SDS011;15453;53.692;10.168;2022-12-19T10:35:35;18.25;;;10.60;;
27985;SDS011;15453;53.692;10.168;2022-12-19T10:38:07;15.65;;;9.38;;
27985;SDS011;15453;53.692;10.168;2022-12-19T10:40:44;19.75;;;11.55;;
27985;SDS011;15453;53.692;10.168;2022-12-19T10:46:09;16.52;;;9.65;;
27985;SDS011;15453;53.692;10.168;2022-12-19T10:48:39;14.43;;;9.50;;
27985;SDS011;15453;53.692;10.168;2022-12-19T10:51:08;13.95;;;9.18;;
27985;SDS011;15453;53.692;10.168;2022-12-19T10:53:36;16.48;;;9.80;;
27985;SDS011;15453;53.692;10.168;2022-12-19T10:56:10;12.60;;;8.27;;
27985;SDS011;15453;53.692;10.168;2022-12-19T10:58:40;16.67;;;9.60;;
27985;SDS011;15453;53.692;10.168;2022-12-19T11:03:52;15.30;;;10.25;;
27985;SDS011;15453;53.692;10.168;2022-12-19T11:06:44;15.88;;;9.90;;
27985;SDS011;15453;53.692;10.168;2022-12-19T11:14:32;16.55;;;9.23;;
27985;SDS011;15453;53.692;10.168;2022-12-19T11:17:00;19.60;;;11.85;;
27985;SDS011;15453;53.692;10.168;2022-12-19T11:19:27;18.95;;;11.65;;
27985;SDS011;15453;53.692;10.168;2022-12-19T11:21:56;16.03;;;10.40;;
27985;SDS011;15453;53.692;10.168;2022-12-19T11:24:35;16.70;;;10.10;;
27985;SDS011;15453;53.692;10.168;2022-12-19T11:27:08;16.70;;;10.65;;
27985;SDS011;15453;53.692;10.168;2022-12-19T11:29:56;17.63;;;10.93;;
27985;SDS011;15453;53.692;10.168;2022-12-19T11:32:28;14.35;;;9.65;;
27985;SDS011;15453;53.692;10.168;2022-12-19T11:35:01;17.70;;;11.02;;
27985;SDS011;15453;53.692;10.168;2022-12-19T11:37:36;19.17;;;11.25;;
27985;SDS011;15453;53.692;10.168;2022-12-19T11:40:50;16.77;;;10.82;;
27985;SDS011;15453;53.692;10.168;2022-12-19T11:43:05;17.00;;;10.55;;
27985;SDS011;15453;53.692;10.168;2022-12-19T11:45:39;16.60;;;10.93;;
27985;SDS011;15453;53.692;10.168;2022-12-19T11:48:19;13.95;;;9.15;;
27985;SDS011;15453;53.692;10.168;2022-12-19T11:51:11;13.93;;;9.00;;
27985;SDS011;15453;53.692;10.168;2022-12-19T11:56:13;14.75;;;9.57;;
27985;SDS011;15453;53.692;10.168;2022-12-19T11:58:41;15.10;;;9.57;;
27985;SDS011;15453;53.692;10.168;2022-12-19T12:01:27;14.23;;;8.75;;
27985;SDS011;15453;53.692;10.168;2022-12-19T12:04:27;12.90;;;8.70;;
27985;SDS011;15453;53.692;10.168;2022-12-19T12:06:59;13.00;;;8.68;;
27985;SDS011;15453;53.692;10.168;2022-12-19T12:12:18;12.50;;;8.23;;
27985;SDS011;15453;53.692;10.168;2022-12-19T12:17:55;12.43;;;8.50;;
27985;SDS011;15453;53.692;10.168;2022-12-19T12:21:23;13.13;;;8.55;;
27985;SDS011;15453;53.692;10.168;2022-12-19T12:26:28;13.32;;;9.15;;
27985;SDS011;15453;53.692;10.168;2022-12-19T12:31:46;12.00;;;8.40;;
27985;SDS011;15453;53.692;10.168;2022-12-19T12:34:29;12.88;;;8.43;;
27985;SDS011;15453;53.692;10.168;2022-12-19T12:37:10;12.35;;;8.82;;
27985;SDS011;15453;53.692;10.168;2022-12-19T12:39:56;13.85;;;9.02;;
27985;SDS011;15453;53.692;10.168;2022-12-19T12:45:21;13.52;;;9.13;;
27985;SDS011;15453;53.692;10.168;2022-12-19T12:47:51;12.38;;;8.48;;
27985;SDS011;15453;53.692;10.168;2022-12-19T12:50:17;14.52;;;9.48;;
27985;SDS011;15453;53.692;10.168;2022-12-19T12:52:58;13.98;;;9.00;;
27985;SDS011;15453;53.692;10.168;2022-12-19T12:55:31;12.02;;;8.52;;
27985;SDS011;15453;53.692;10.168;2022-12-19T12:58:01;12.10;;;8.50;;
27985;SDS011;15453;53.692;10.168;2022-12-19T13:00:30;14.13;;;9.52;;
27985;SDS011;15453;53.692;10.168;2022-12-19T13:03:09;16.30;;;10.60;;
27985;SDS011;15453;53.692;10.168;2022-12-19T13:11:03;13.43;;;8.75;;
27985;SDS011;15453;53.692;10.168;2022-12-19T13:19:23;15.70;;;10.30;;
27985;SDS011;15453;53.692;10.168;2022-12-19T13:24:36;16.05;;;10.60;;
27985;SDS011;15453;53.692;10.168;2022-12-19T13:27:02;16.00;;;10.82;;
27985;SDS011;15453;53.692;10.168;2022-12-19T13:29:49;19.65;;;12.68;;
27985;SDS011;15453;53.692;10.168;2022-12-19T13:32:23;25.02;;;15.05;;
27985;SDS011;15453;53.692;10.168;2022-12-19T13:34:53;30.13;;;16.00;;
27985;SDS011;15453;53.692;10.168;2022-12-19T13:45:56;14.48;;;10.32;;
27985;SDS011;15453;53.692;10.168;2022-12-19T13:51:09;14.98;;;10.57;;
27985;SDS011;15453;53.692;10.168;2022-12-19T13:53:36;16.85;;;10.75;;
27985;SDS011;15453;53.692;10.168;2022-12-19T13:56:08;13.68;;;9.55;;
27985;SDS011;15453;53.692;10.168;2022-12-19T13:58:43;15.75;;;10.77;;
27985;SDS011;15453;53.692;10.168;2022-12-19T14:01:21;17.15;;;10.60;;
27985;SDS011;15453;53.692;10.168;2022-12-19T14:03:53;16.85;;;11.07;;
27985;SDS011;15453;53.692;10.168;2022-12-19T14:06:24;17.63;;;11.63;;
27985;SDS011;15453;53.692;10.168;2022-12-19T14:08:59;17.27;;;11.70;;
27985;SDS011;15453;53.692;10.168;2022-12-19T14:11:28;15.82;;;10.85;;
27985;SDS011;15453;53.692;10.168;2022-12-19T14:13:55;16.95;;;11.52;;
27985;SDS011;15453;53.692;10.168;2022-12-19T14:16:42;16.45;;;10.93;;
27985;SDS011;15453;53.692;10.168;2022-12-19T14:19:22;16.20;;;11.00;;
27985;SDS011;15453;53.692;10.168;2022-12-19T14:21:49;16.17;;;11.05;;
27985;SDS011;15453;53.692;10.168;2022-12-19T14:24:16;14.77;;;10.52;;
27985;SDS011;15453;53.692;10.168;2022-12-19T14:26:45;15.57;;;11.23;;
27985;SDS011;15453;53.692;10.168;2022-12-19T14:29:25;15.80;;;11.43;;
27985;SDS011;15453;53.692;10.168;2022-12-19T14:31:56;15.98;;;10.68;;
27985;SDS011;15453;53.692;10.168;2022-12-19T14:34:23;15.88;;;11.45;;
27985;SDS011;15453;53.692;10.168;2022-12-19T14:36:52;15.83;;;11.20;;
27985;SDS011;15453;53.692;10.168;2022-12-19T14:39:20;15.50;;;11.10;;
27985;SDS011;15453;53.692;10.168;2022-12-19T14:41:49;14.70;;;11.02;;
27985;SDS011;15453;53.692;10.168;2022-12-19T14:44:42;16.83;;;10.90;;
27985;SDS011;15453;53.692;10.168;2022-12-19T14:47:09;16.42;;;11.27;;
27985;SDS011;15453;53.692;10.168;2022-12-19T14:49:36;17.33;;;11.05;;
27985;SDS011;15453;53.692;10.168;2022-12-19T14:52:02;16.80;;;11.27;;
27985;SDS011;15453;53.692;10.168;2022-12-19T14:54:28;16.33;;;10.98;;
27985;SDS011;15453;53.692;10.168;2022-12-19T14:56:58;17.85;;;11.55;;
27985;SDS011;15453;53.692;10.168;2022-12-19T14:59:30;19.42;;;12.00;;
27985;SDS011;15453;53.692;10.168;2022-12-19T15:04:30;16.50;;;11.13;;
27985;SDS011;15453;53.692;10.168;2022-12-19T15:07:17;19.63;;;11.20;;
27985;SDS011;15453;53.692;10.168;2022-12-19T15:12:13;24.65;;;14.35;;
27985;SDS011;15453;53.692;10.168;2022-12-19T15:15:33;23.75;;;14.75;;
27985;SDS011;15453;53.692;10.168;2022-12-19T15:18:19;20.70;;;13.38;;
27985;SDS011;15453;53.692;10.168;2022-12-19T15:20:47;20.80;;;13.43;;
27985;SDS011;15453;53.692;10.168;2022-12-19T15:23:13;19.60;;;13.20;;
27985;SDS011;15453;53.692;10.168;2022-12-19T15:25:38;17.90;;;12.30;;
27985;SDS011;15453;53.692;10.168;2022-12-19T15:28:14;17.70;;;12.20;;
27985;SDS011;15453;53.692;10.168;2022-12-19T15:30:43;18.50;;;12.60;;
27985;SDS011;15453;53.692;10.168;2022-12-19T15:33:13;19.20;;;12.20;;
27985;SDS011;15453;53.692;10.168;2022-12-19T15:35:39;21.33;;;13.38;;
27985;SDS011;15453;53.692;10.168;2022-12-19T15:38:04;18.02;;;12.25;;
27985;SDS011;15453;53.692;10.168;2022-12-19T15:40:29;19.60;;;13.43;;
27985;SDS011;15453;53.692;10.168;2022-12-19T15:42:55;19.95;;;12.80;;
27985;SDS011;15453;53.692;10.168;2022-12-19T15:45:21;18.55;;;12.30;;
27985;SDS011;15453;53.692;10.168;2022-12-19T15:47:47;18.02;;;12.40;;
27985;SDS011;15453;53.692;10.168;2022-12-19T15:52:41;20.38;;;13.93;;
27985;SDS011;15453;53.692;10.168;2022-12-19T15:55:07;22.95;;;15.48;;
27985;SDS011;15453;53.692;10.168;2022-12-19T15:57:36;31.10;;;17.90;;
27985;SDS011;15453;53.692;10.168;2022-12-19T16:00:05;22.52;;;14.77;;
27985;SDS011;15453;53.692;10.168;2022-12-19T16:02:36;21.55;;;15.07;;
27985;SDS011;15453;53.692;10.168;2022-12-19T16:05:02;22.88;;;13.98;;
27985;SDS011;15453;53.692;10.168;2022-12-19T16:07:28;21.02;;;14.23;;
27985;SDS011;15453;53.692;10.168;2022-12-19T16:09:53;20.65;;;14.60;;
27985;SDS011;15453;53.692;10.168;2022-12-19T16:12:20;19.45;;;12.95;;
27985;SDS011;15453;53.692;10.168;2022-12-19T16:14:48;21.00;;;12.45;;
27985;SDS011;15453;53.692;10.168;2022-12-19T16:17:21;20.27;;;13.85;;
27985;SDS011;15453;53.692;10.168;2022-12-19T16:19:48;20.98;;;13.65;;
27985;SDS011;15453;53.692;10.168;2022-12-19T16:22:21;19.52;;;13.95;;